sensor_id;sensor_type;location;lat;lon;timestamp;P1;P2;P0
55549;PMS7003;41397;49.972;18.944;2023-11-19T00:02:38;32;29;20
55549;PMS7003;41397;49.972;18.944;2023-11-19T00:05:39;39;34;19
55549;PMS7003;41397;49.972;18.944;2023-11-19T00:08:42;36;31;21
55549;PMS7003;41397;49.972;18.944;2023-11-19T00:11:47;31;28;18
55549;PMS7003;41397;49.972;18.944;2023-11-19T00:14:48;29;26;17
55549;PMS7003;41397;49.972;18.944;2023-11-19T00:17:50;35;29;20
55549;PMS7003;41397;49.972;18.944;2023-11-19T00:20:52;37;33;20
55549;PMS7003;41397;49.972;18.944;2023-11-19T00:23:53;34;29;19
55549;PMS7003;41397;49.972;18.944;2023-11-19T00:26:55;27;26;18
55549;PMS7003;41397;49.972;18.944;2023-11-19T00:29:57;33;29;17
55549;PMS7003;41397;49.972;18.944;2023-11-19T00:32:59;26;25;16
55549;PMS7003;41397;49.972;18.944;2023-11-19T00:36:00;36;32;21
55549;PMS7003;41397;49.972;18.944;2023-11-19T00:39:03;35;31;21
55549;PMS7003;41397;49.972;18.944;2023-11-19T00:42:06;43;34;19
55549;PMS7003;41397;49.972;18.944;2023-11-19T00:45:08;44;37;23
55549;PMS7003;41397;49.972;18.944;2023-11-19T00:48:13;49;40;25
55549;PMS7003;41397;49.972;18.944;2023-11-19T00:51:14;51;42;26
55549;PMS7003;41397;49.972;18.944;2023-11-19T00:54:15;64;46;27
55549;PMS7003;41397;49.972;18.944;2023-11-19T00:57:17;59;44;27
55549;PMS7003;41397;49.972;18.944;2023-11-19T01:00:18;53;44;27
55549;PMS7003;41397;49.972;18.944;2023-11-19T01:03:20;60;45;29
55549;PMS7003;41397;49.972;18.944;2023-11-19T01:09:29;48;40;25
55549;PMS7003;41397;49.972;18.944;2023-11-19T01:12:40;52;42;24
55549;PMS7003;41397;49.972;18.944;2023-11-19T01:15:42;44;36;21
55549;PMS7003;41397;49.972;18.944;2023-11-19T01:18:44;54;43;26
55549;PMS7003;41397;49.972;18.944;2023-11-19T01:21:47;48;41;25
55549;PMS7003;41397;49.972;18.944;2023-11-19T01:24:48;56;47;30
55549;PMS7003;41397;49.972;18.944;2023-11-19T01:27:50;46;36;23
55549;PMS7003;41397;49.972;18.944;2023-11-19T01:30:51;44;38;26
55549;PMS7003;41397;49.972;18.944;2023-11-19T01:33:53;51;38;22
55549;PMS7003;41397;49.972;18.944;2023-11-19T01:36:56;53;43;29
55549;PMS7003;41397;49.972;18.944;2023-11-19T01:39:58;48;39;27
55549;PMS7003;41397;49.972;18.944;2023-11-19T01:42:59;47;35;21
55549;PMS7003;41397;49.972;18.944;2023-11-19T01:46:01;52;41;26
55549;PMS7003;41397;49.972;18.944;2023-11-19T01:49:05;42;35;23
55549;PMS7003;41397;49.972;18.944;2023-11-19T01:52:07;46;39;25
55549;PMS7003;41397;49.972;18.944;2023-11-19T01:55:09;55;46;28
55549;PMS7003;41397;49.972;18.944;2023-11-19T01:58:12;60;46;29
55549;PMS7003;41397;49.972;18.944;2023-11-19T02:01:14;68;60;34
55549;PMS7003;41397;49.972;18.944;2023-11-19T02:04:16;64;59;32
55549;PMS7003;41397;49.972;18.944;2023-11-19T02:07:17;65;52;35
55549;PMS7003;41397;49.972;18.944;2023-11-19T02:10:19;79;74;43
55549;PMS7003;41397;49.972;18.944;2023-11-19T02:13:21;86;79;49
55549;PMS7003;41397;49.972;18.944;2023-11-19T02:16:22;95;85;41
55549;PMS7003;41397;49.972;18.944;2023-11-19T02:19:24;92;79;47
55549;PMS7003;41397;49.972;18.944;2023-11-19T02:22:25;87;80;43
55549;PMS7003;41397;49.972;18.944;2023-11-19T02:25:30;87;83;46
55549;PMS7003;41397;49.972;18.944;2023-11-19T02:28:34;76;66;40
55549;PMS7003;41397;49.972;18.944;2023-11-19T02:31:37;98;77;41
55549;PMS7003;41397;49.972;18.944;2023-11-19T02:34:39;77;69;40
55549;PMS7003;41397;49.972;18.944;2023-11-19T02:37:40;74;66;35
55549;PMS7003;41397;49.972;18.944;2023-11-19T02:40:41;66;59;37
55549;PMS7003;41397;49.972;18.944;2023-11-19T02:43:43;75;69;37
55549;PMS7003;41397;49.972;18.944;2023-11-19T02:46:44;71;64;36
55549;PMS7003;41397;49.972;18.944;2023-11-19T02:49:48;70;64;34
55549;PMS7003;41397;49.972;18.944;2023-11-19T02:52:51;60;49;27
55549;PMS7003;41397;49.972;18.944;2023-11-19T02:55:58;68;62;34
55549;PMS7003;41397;49.972;18.944;2023-11-19T02:59:11;65;58;33
55549;PMS7003;41397;49.972;18.944;2023-11-19T03:02:22;64;54;32
55549;PMS7003;41397;49.972;18.944;2023-11-19T03:05:30;71;56;31
55549;PMS7003;41397;49.972;18.944;2023-11-19T03:08:32;64;52;29
55549;PMS7003;41397;49.972;18.944;2023-11-19T03:11:36;63;57;35
55549;PMS7003;41397;49.972;18.944;2023-11-19T03:14:37;60;54;32
55549;PMS7003;41397;49.972;18.944;2023-11-19T03:17:39;64;51;31
55549;PMS7003;41397;49.972;18.944;2023-11-19T03:20:41;53;44;28
55549;PMS7003;41397;49.972;18.944;2023-11-19T03:23:42;63;54;34
55549;PMS7003;41397;49.972;18.944;2023-11-19T03:26:48;67;53;26
55549;PMS7003;41397;49.972;18.944;2023-11-19T03:29:51;53;45;33
55549;PMS7003;41397;49.972;18.944;2023-11-19T03:32:52;61;49;32
55549;PMS7003;41397;49.972;18.944;2023-11-19T03:35:54;58;46;29
55549;PMS7003;41397;49.972;18.944;2023-11-19T03:38:57;61;52;30
55549;PMS7003;41397;49.972;18.944;2023-11-19T03:41:58;62;54;33
55549;PMS7003;41397;49.972;18.944;2023-11-19T03:45:00;55;47;32
55549;PMS7003;41397;49.972;18.944;2023-11-19T03:48:04;58;43;27
55549;PMS7003;41397;49.972;18.944;2023-11-19T03:51:06;61;53;33
55549;PMS7003;41397;49.972;18.944;2023-11-19T03:54:07;54;45;30
55549;PMS7003;41397;49.972;18.944;2023-11-19T03:57:09;61;48;30
55549;PMS7003;41397;49.972;18.944;2023-11-19T04:00:13;62;52;29
55549;PMS7003;41397;49.972;18.944;2023-11-19T04:03:15;70;63;35
55549;PMS7003;41397;49.972;18.944;2023-11-19T04:06:17;59;51;31
55549;PMS7003;41397;49.972;18.944;2023-11-19T04:09:18;63;49;32
55549;PMS7003;41397;49.972;18.944;2023-11-19T04:12:20;63;57;33
55549;PMS7003;41397;49.972;18.944;2023-11-19T04:15:22;72;59;33
55549;PMS7003;41397;49.972;18.944;2023-11-19T04:18:24;62;53;31
55549;PMS7003;41397;49.972;18.944;2023-11-19T04:21:26;61;54;32
55549;PMS7003;41397;49.972;18.944;2023-11-19T04:24:27;59;51;30
55549;PMS7003;41397;49.972;18.944;2023-11-19T04:27:29;63;57;33
55549;PMS7003;41397;49.972;18.944;2023-11-19T04:30:30;61;54;31
55549;PMS7003;41397;49.972;18.944;2023-11-19T04:33:32;63;52;32
55549;PMS7003;41397;49.972;18.944;2023-11-19T04:36:34;66;59;33
55549;PMS7003;41397;49.972;18.944;2023-11-19T04:39:37;56;47;31
55549;PMS7003;41397;49.972;18.944;2023-11-19T04:42:39;63;52;31
55549;PMS7003;41397;49.972;18.944;2023-11-19T04:45:41;59;51;31
55549;PMS7003;41397;49.972;18.944;2023-11-19T04:48:42;63;55;35
55549;PMS7003;41397;49.972;18.944;2023-11-19T04:51:44;61;52;32
55549;PMS7003;41397;49.972;18.944;2023-11-19T04:54:48;56;42;26
55549;PMS7003;41397;49.972;18.944;2023-11-19T04:57:49;64;50;29
55549;PMS7003;41397;49.972;18.944;2023-11-19T05:00:51;61;50;30
55549;PMS7003;41397;49.972;18.944;2023-11-19T05:03:53;58;49;28
55549;PMS7003;41397;49.972;18.944;2023-11-19T05:06:54;64;53;33
55549;PMS7003;41397;49.972;18.944;2023-11-19T05:09:56;63;52;33
55549;PMS7003;41397;49.972;18.944;2023-11-19T05:12:57;59;48;29
55549;PMS7003;41397;49.972;18.944;2023-11-19T05:15:58;66;60;32
55549;PMS7003;41397;49.972;18.944;2023-11-19T05:19:00;64;57;33
55549;PMS7003;41397;49.972;18.944;2023-11-19T05:22:03;58;45;31
55549;PMS7003;41397;49.972;18.944;2023-11-19T05:25:05;61;55;34
55549;PMS7003;41397;49.972;18.944;2023-11-19T05:28:06;63;57;33
55549;PMS7003;41397;49.972;18.944;2023-11-19T05:31:08;70;59;33
55549;PMS7003;41397;49.972;18.944;2023-11-19T05:34:11;56;48;32
55549;PMS7003;41397;49.972;18.944;2023-11-19T05:37:14;64;57;30
55549;PMS7003;41397;49.972;18.944;2023-11-19T05:40:15;65;61;34
55549;PMS7003;41397;49.972;18.944;2023-11-19T05:43:19;69;60;31
55549;PMS7003;41397;49.972;18.944;2023-11-19T05:46:21;67;63;37
55549;PMS7003;41397;49.972;18.944;2023-11-19T05:49:23;64;55;33
55549;PMS7003;41397;49.972;18.944;2023-11-19T05:52:25;69;61;34
55549;PMS7003;41397;49.972;18.944;2023-11-19T05:55:26;62;56;37
55549;PMS7003;41397;49.972;18.944;2023-11-19T05:58:29;66;59;39
55549;PMS7003;41397;49.972;18.944;2023-11-19T06:01:31;65;59;34
55549;PMS7003;41397;49.972;18.944;2023-11-19T06:04:32;70;59;35
55549;PMS7003;41397;49.972;18.944;2023-11-19T06:07:34;69;62;37
55549;PMS7003;41397;49.972;18.944;2023-11-19T06:10:38;60;54;33
55549;PMS7003;41397;49.972;18.944;2023-11-19T06:13:41;83;65;38
55549;PMS7003;41397;49.972;18.944;2023-11-19T06:16:44;63;58;38
55549;PMS7003;41397;49.972;18.944;2023-11-19T06:19:45;80;72;41
55549;PMS7003;41397;49.972;18.944;2023-11-19T06:22:47;64;61;36
55549;PMS7003;41397;49.972;18.944;2023-11-19T06:25:48;62;53;34
55549;PMS7003;41397;49.972;18.944;2023-11-19T06:28:49;60;52;29
55549;PMS7003;41397;49.972;18.944;2023-11-19T06:31:51;60;53;31
55549;PMS7003;41397;49.972;18.944;2023-11-19T06:34:52;62;51;30
55549;PMS7003;41397;49.972;18.944;2023-11-19T06:37:54;56;49;30
55549;PMS7003;41397;49.972;18.944;2023-11-19T06:40:56;57;48;29
55549;PMS7003;41397;49.972;18.944;2023-11-19T06:43:57;61;50;29
55549;PMS7003;41397;49.972;18.944;2023-11-19T06:47:00;58;44;27
55549;PMS7003;41397;49.972;18.944;2023-11-19T06:50:02;57;49;29
55549;PMS7003;41397;49.972;18.944;2023-11-19T06:53:06;65;62;32
55549;PMS7003;41397;49.972;18.944;2023-11-19T06:59:19;65;46;28
55549;PMS7003;41397;49.972;18.944;2023-11-19T07:02:20;57;47;29
55549;PMS7003;41397;49.972;18.944;2023-11-19T07:05:21;54;45;30
55549;PMS7003;41397;49.972;18.944;2023-11-19T07:08:24;56;45;26
55549;PMS7003;41397;49.972;18.944;2023-11-19T07:11:27;61;46;30
55549;PMS7003;41397;49.972;18.944;2023-11-19T07:14:30;62;53;26
55549;PMS7003;41397;49.972;18.944;2023-11-19T07:17:31;59;49;29
55549;PMS7003;41397;49.972;18.944;2023-11-19T07:20:33;46;38;22
55549;PMS7003;41397;49.972;18.944;2023-11-19T07:23:34;57;48;28
55549;PMS7003;41397;49.972;18.944;2023-11-19T07:26:36;55;46;28
55549;PMS7003;41397;49.972;18.944;2023-11-19T07:29:43;65;58;32
55549;PMS7003;41397;49.972;18.944;2023-11-19T07:32:45;60;47;29
55549;PMS7003;41397;49.972;18.944;2023-11-19T07:35:47;61;52;30
55549;PMS7003;41397;49.972;18.944;2023-11-19T07:38:49;62;55;31
55549;PMS7003;41397;49.972;18.944;2023-11-19T07:41:51;63;56;37
55549;PMS7003;41397;49.972;18.944;2023-11-19T07:44:52;63;56;34
55549;PMS7003;41397;49.972;18.944;2023-11-19T07:47:57;72;66;37
55549;PMS7003;41397;49.972;18.944;2023-11-19T07:51:06;60;49;34
55549;PMS7003;41397;49.972;18.944;2023-11-19T07:54:08;73;63;36
55549;PMS7003;41397;49.972;18.944;2023-11-19T07:57:10;64;52;30
55549;PMS7003;41397;49.972;18.944;2023-11-19T08:00:11;51;41;27
55549;PMS7003;41397;49.972;18.944;2023-11-19T08:03:13;56;46;30
55549;PMS7003;41397;49.972;18.944;2023-11-19T08:06:15;57;49;30
55549;PMS7003;41397;49.972;18.944;2023-11-19T08:09:16;54;45;29
55549;PMS7003;41397;49.972;18.944;2023-11-19T08:12:18;58;47;30
55549;PMS7003;41397;49.972;18.944;2023-11-19T08:15:22;55;46;28
55549;PMS7003;41397;49.972;18.944;2023-11-19T08:18:23;51;43;24
55549;PMS7003;41397;49.972;18.944;2023-11-19T08:21:25;25;20;3
55549;PMS7003;41397;49.972;18.944;2023-11-19T08:24:27;39;33;21
55549;PMS7003;41397;49.972;18.944;2023-11-19T08:27:30;44;37;26
55549;PMS7003;41397;49.972;18.944;2023-11-19T08:30:31;47;39;23
55549;PMS7003;41397;49.972;18.944;2023-11-19T08:33:32;45;37;23
55549;PMS7003;41397;49.972;18.944;2023-11-19T08:36:34;47;39;26
55549;PMS7003;41397;49.972;18.944;2023-11-19T08:39:38;45;38;24
55549;PMS7003;41397;49.972;18.944;2023-11-19T08:42:39;51;39;24
55549;PMS7003;41397;49.972;18.944;2023-11-19T08:45:41;50;40;26
55549;PMS7003;41397;49.972;18.944;2023-11-19T08:48:42;50;40;24
55549;PMS7003;41397;49.972;18.944;2023-11-19T08:51:46;49;41;26
55549;PMS7003;41397;49.972;18.944;2023-11-19T08:54:48;41;35;22
55549;PMS7003;41397;49.972;18.944;2023-11-19T08:57:49;40;35;21
55549;PMS7003;41397;49.972;18.944;2023-11-19T09:00:51;46;39;25
55549;PMS7003;41397;49.972;18.944;2023-11-19T09:03:54;47;39;23
55549;PMS7003;41397;49.972;18.944;2023-11-19T09:06:57;50;42;25
55549;PMS7003;41397;49.972;18.944;2023-11-19T09:09:59;52;43;24
55549;PMS7003;41397;49.972;18.944;2023-11-19T09:13:00;49;40;25
55549;PMS7003;41397;49.972;18.944;2023-11-19T09:16:02;50;41;25
55549;PMS7003;41397;49.972;18.944;2023-11-19T09:19:04;44;37;21
55549;PMS7003;41397;49.972;18.944;2023-11-19T09:22:06;47;40;24
55549;PMS7003;41397;49.972;18.944;2023-11-19T09:25:07;48;38;24
55549;PMS7003;41397;49.972;18.944;2023-11-19T09:28:10;56;44;28
55549;PMS7003;41397;49.972;18.944;2023-11-19T09:31:17;4;1;0
55549;PMS7003;41397;49.972;18.944;2023-11-19T09:34:19;48;40;24
55549;PMS7003;41397;49.972;18.944;2023-11-19T09:37:20;43;34;24
55549;PMS7003;41397;49.972;18.944;2023-11-19T09:40:23;44;38;23
55549;PMS7003;41397;49.972;18.944;2023-11-19T09:43:24;38;33;21
55549;PMS7003;41397;49.972;18.944;2023-11-19T09:46:29;39;30;20
55549;PMS7003;41397;49.972;18.944;2023-11-19T09:49:31;17;16;9
55549;PMS7003;41397;49.972;18.944;2023-11-19T09:52:34;12;12;7
55549;PMS7003;41397;49.972;18.944;2023-11-19T09:55:36;20;19;12
55549;PMS7003;41397;49.972;18.944;2023-11-19T09:58:37;12;12;10
55549;PMS7003;41397;49.972;18.944;2023-11-19T10:01:38;16;15;8
55549;PMS7003;41397;49.972;18.944;2023-11-19T10:04:41;9;9;8
55549;PMS7003;41397;49.972;18.944;2023-11-19T10:07:45;8;8;5
55549;PMS7003;41397;49.972;18.944;2023-11-19T10:10:47;8;8;6
55549;PMS7003;41397;49.972;18.944;2023-11-19T10:13:49;6;6;5
55549;PMS7003;41397;49.972;18.944;2023-11-19T10:16:52;5;5;4
55549;PMS7003;41397;49.972;18.944;2023-11-19T10:20:01;5;5;4
55549;PMS7003;41397;49.972;18.944;2023-11-19T10:23:05;5;5;4
55549;PMS7003;41397;49.972;18.944;2023-11-19T10:26:06;10;8;6
55549;PMS7003;41397;49.972;18.944;2023-11-19T10:29:08;9;8;6
55549;PMS7003;41397;49.972;18.944;2023-11-19T10:32:15;7;7;6
55549;PMS7003;41397;49.972;18.944;2023-11-19T10:35:16;8;8;5
55549;PMS7003;41397;49.972;18.944;2023-11-19T10:38:18;7;7;5
55549;PMS7003;41397;49.972;18.944;2023-11-19T10:41:29;7;7;4
55549;PMS7003;41397;49.972;18.944;2023-11-19T10:44:32;7;7;3
55549;PMS7003;41397;49.972;18.944;2023-11-19T10:47:39;6;6;4
55549;PMS7003;41397;49.972;18.944;2023-11-19T10:50:41;11;10;5
55549;PMS7003;41397;49.972;18.944;2023-11-19T10:53:44;6;6;4
55549;PMS7003;41397;49.972;18.944;2023-11-19T10:56:47;7;7;6
55549;PMS7003;41397;49.972;18.944;2023-11-19T10:59:59;12;12;7
55549;PMS7003;41397;49.972;18.944;2023-11-19T11:03:05;10;10;9
55549;PMS7003;41397;49.972;18.944;2023-11-19T11:06:12;7;7;5
55549;PMS7003;41397;49.972;18.944;2023-11-19T11:09:14;7;7;6
55549;PMS7003;41397;49.972;18.944;2023-11-19T11:12:16;6;6;5
55549;PMS7003;41397;49.972;18.944;2023-11-19T11:15:27;9;9;6
55549;PMS7003;41397;49.972;18.944;2023-11-19T11:18:30;6;6;5
55549;PMS7003;41397;49.972;18.944;2023-11-19T11:21:31;2;2;0
55549;PMS7003;41397;49.972;18.944;2023-11-19T11:37:33;8;8;7
55549;PMS7003;41397;49.972;18.944;2023-11-19T11:40:38;5;5;3
55549;PMS7003;41397;49.972;18.944;2023-11-19T11:43:44;10;10;8
55549;PMS7003;41397;49.972;18.944;2023-11-19T11:46:55;8;8;6
55549;PMS7003;41397;49.972;18.944;2023-11-19T11:49:58;7;7;5
55549;PMS7003;41397;49.972;18.944;2023-11-19T11:56:24;8;8;4
55549;PMS7003;41397;49.972;18.944;2023-11-19T12:02:46;8;8;7
55549;PMS7003;41397;49.972;18.944;2023-11-19T12:05:49;13;13;7
55549;PMS7003;41397;49.972;18.944;2023-11-19T12:08:51;9;9;6
55549;PMS7003;41397;49.972;18.944;2023-11-19T12:12:06;8;8;3
55549;PMS7003;41397;49.972;18.944;2023-11-19T12:15:08;12;12;9
55549;PMS7003;41397;49.972;18.944;2023-11-19T12:18:16;8;8;5
55549;PMS7003;41397;49.972;18.944;2023-11-19T12:24:31;16;16;9
55549;PMS7003;41397;49.972;18.944;2023-11-19T12:30:46;21;19;12
55549;PMS7003;41397;49.972;18.944;2023-11-19T12:33:53;19;19;12
55549;PMS7003;41397;49.972;18.944;2023-11-19T12:36:55;19;19;14
55549;PMS7003;41397;49.972;18.944;2023-11-19T12:39:57;10;10;8
55549;PMS7003;41397;49.972;18.944;2023-11-19T12:42:59;12;12;9
55549;PMS7003;41397;49.972;18.944;2023-11-19T12:46:01;12;12;9
55549;PMS7003;41397;49.972;18.944;2023-11-19T12:49:02;7;7;6
55549;PMS7003;41397;49.972;18.944;2023-11-19T12:52:36;10;10;8
55549;PMS7003;41397;49.972;18.944;2023-11-19T12:55:38;10;10;8
55549;PMS7003;41397;49.972;18.944;2023-11-19T12:58:40;11;11;6
55549;PMS7003;41397;49.972;18.944;2023-11-19T13:08:21;15;13;9
55549;PMS7003;41397;49.972;18.944;2023-11-19T13:14:37;18;18;10
55549;PMS7003;41397;49.972;18.944;2023-11-19T13:17:39;21;21;17
55549;PMS7003;41397;49.972;18.944;2023-11-19T13:20:40;27;26;16
55549;PMS7003;41397;49.972;18.944;2023-11-19T13:23:41;18;18;13
55549;PMS7003;41397;49.972;18.944;2023-11-19T13:26:44;14;14;10
55549;PMS7003;41397;49.972;18.944;2023-11-19T13:29:46;19;16;9
55549;PMS7003;41397;49.972;18.944;2023-11-19T13:32:48;13;13;9
55549;PMS7003;41397;49.972;18.944;2023-11-19T13:35:50;17;17;10
55549;PMS7003;41397;49.972;18.944;2023-11-19T13:38:51;19;19;13
55549;PMS7003;41397;49.972;18.944;2023-11-19T13:41:59;11;11;7
55549;PMS7003;41397;49.972;18.944;2023-11-19T13:45:03;15;15;11
55549;PMS7003;41397;49.972;18.944;2023-11-19T13:48:06;12;12;8
55549;PMS7003;41397;49.972;18.944;2023-11-19T13:51:08;16;15;11
55549;PMS7003;41397;49.972;18.944;2023-11-19T13:54:10;16;16;12
55549;PMS7003;41397;49.972;18.944;2023-11-19T13:57:15;11;11;7
55549;PMS7003;41397;49.972;18.944;2023-11-19T14:00:18;9;9;4
55549;PMS7003;41397;49.972;18.944;2023-11-19T14:03:22;24;20;9
55549;PMS7003;41397;49.972;18.944;2023-11-19T14:06:23;18;15;7
55549;PMS7003;41397;49.972;18.944;2023-11-19T14:09:24;7;7;5
55549;PMS7003;41397;49.972;18.944;2023-11-19T14:12:27;10;10;8
55549;PMS7003;41397;49.972;18.944;2023-11-19T14:15:29;12;12;8
55549;PMS7003;41397;49.972;18.944;2023-11-19T14:18:33;7;7;4
55549;PMS7003;41397;49.972;18.944;2023-11-19T14:21:35;10;10;9
55549;PMS7003;41397;49.972;18.944;2023-11-19T14:24:37;16;14;9
55549;PMS7003;41397;49.972;18.944;2023-11-19T14:27:42;10;10;7
55549;PMS7003;41397;49.972;18.944;2023-11-19T14:30:46;12;12;10
55549;PMS7003;41397;49.972;18.944;2023-11-19T14:33:54;13;13;9
55549;PMS7003;41397;49.972;18.944;2023-11-19T14:36:56;12;12;9
55549;PMS7003;41397;49.972;18.944;2023-11-19T14:40:00;14;14;10
55549;PMS7003;41397;49.972;18.944;2023-11-19T14:43:06;15;15;10
55549;PMS7003;41397;49.972;18.944;2023-11-19T14:46:10;17;17;14
55549;PMS7003;41397;49.972;18.944;2023-11-19T14:49:12;16;16;11
55549;PMS7003;41397;49.972;18.944;2023-11-19T14:52:14;16;15;10
55549;PMS7003;41397;49.972;18.944;2023-11-19T14:55:16;12;12;7
55549;PMS7003;41397;49.972;18.944;2023-11-19T14:58:18;12;11;8
55549;PMS7003;41397;49.972;18.944;2023-11-19T15:01:19;7;7;5
55549;PMS7003;41397;49.972;18.944;2023-11-19T15:04:21;10;10;7
55549;PMS7003;41397;49.972;18.944;2023-11-19T15:07:22;12;12;7
55549;PMS7003;41397;49.972;18.944;2023-11-19T15:10:23;13;13;8
55549;PMS7003;41397;49.972;18.944;2023-11-19T15:13:25;9;9;7
55549;PMS7003;41397;49.972;18.944;2023-11-19T15:16:27;12;12;9
55549;PMS7003;41397;49.972;18.944;2023-11-19T15:19:35;13;13;10
55549;PMS7003;41397;49.972;18.944;2023-11-19T15:22:36;9;9;6
55549;PMS7003;41397;49.972;18.944;2023-11-19T15:25:38;9;9;8
55549;PMS7003;41397;49.972;18.944;2023-11-19T15:28:39;9;9;6
55549;PMS7003;41397;49.972;18.944;2023-11-19T15:31:41;8;8;5
55549;PMS7003;41397;49.972;18.944;2023-11-19T15:34:42;9;8;7
55549;PMS7003;41397;49.972;18.944;2023-11-19T15:37:44;14;14;6
55549;PMS7003;41397;49.972;18.944;2023-11-19T15:40:45;9;9;6
55549;PMS7003;41397;49.972;18.944;2023-11-19T15:43:47;11;11;6
55549;PMS7003;41397;49.972;18.944;2023-11-19T15:46:48;13;13;7
55549;PMS7003;41397;49.972;18.944;2023-11-19T15:49:50;10;10;8
55549;PMS7003;41397;49.972;18.944;2023-11-19T15:52:51;13;13;7
55549;PMS7003;41397;49.972;18.944;2023-11-19T15:55:53;10;10;8
55549;PMS7003;41397;49.972;18.944;2023-11-19T15:58:54;20;20;9
55549;PMS7003;41397;49.972;18.944;2023-11-19T16:01:55;15;15;9
55549;PMS7003;41397;49.972;18.944;2023-11-19T16:04:58;17;17;12
55549;PMS7003;41397;49.972;18.944;2023-11-19T16:07:59;13;13;9
55549;PMS7003;41397;49.972;18.944;2023-11-19T16:11:01;18;13;7
55549;PMS7003;41397;49.972;18.944;2023-11-19T16:14:02;12;12;11
55549;PMS7003;41397;49.972;18.944;2023-11-19T16:17:04;16;16;9
55549;PMS7003;41397;49.972;18.944;2023-11-19T16:20:07;13;13;10
55549;PMS7003;41397;49.972;18.944;2023-11-19T16:23:11;13;12;7
55549;PMS7003;41397;49.972;18.944;2023-11-19T16:26:15;13;13;7
55549;PMS7003;41397;49.972;18.944;2023-11-19T16:29:17;8;8;6
55549;PMS7003;41397;49.972;18.944;2023-11-19T16:32:20;4;4;3
55549;PMS7003;41397;49.972;18.944;2023-11-19T16:35:21;7;7;5
55549;PMS7003;41397;49.972;18.944;2023-11-19T16:38:23;10;10;8
55549;PMS7003;41397;49.972;18.944;2023-11-19T16:41:24;16;16;10
55549;PMS7003;41397;49.972;18.944;2023-11-19T16:44:25;12;12;8
55549;PMS7003;41397;49.972;18.944;2023-11-19T16:47:27;9;9;8
55549;PMS7003;41397;49.972;18.944;2023-11-19T16:50:28;11;11;8
55549;PMS7003;41397;49.972;18.944;2023-11-19T16:53:29;18;15;13
55549;PMS7003;41397;49.972;18.944;2023-11-19T16:56:31;10;10;8
55549;PMS7003;41397;49.972;18.944;2023-11-19T16:59:33;13;13;6
55549;PMS7003;41397;49.972;18.944;2023-11-19T17:02:37;13;13;7
55549;PMS7003;41397;49.972;18.944;2023-11-19T17:05:42;6;6;5
55549;PMS7003;41397;49.972;18.944;2023-11-19T17:08:44;7;7;6
55549;PMS7003;41397;49.972;18.944;2023-11-19T17:11:46;11;10;6
55549;PMS7003;41397;49.972;18.944;2023-11-19T17:14:47;8;8;6
55549;PMS7003;41397;49.972;18.944;2023-11-19T17:17:48;8;8;5
55549;PMS7003;41397;49.972;18.944;2023-11-19T17:20:53;7;7;6
55549;PMS7003;41397;49.972;18.944;2023-11-19T17:23:58;4;4;3
55549;PMS7003;41397;49.972;18.944;2023-11-19T17:27:03;7;7;4
55549;PMS7003;41397;49.972;18.944;2023-11-19T17:30:05;9;9;5
55549;PMS7003;41397;49.972;18.944;2023-11-19T17:33:12;9;9;6
55549;PMS7003;41397;49.972;18.944;2023-11-19T17:36:14;6;6;3
55549;PMS7003;41397;49.972;18.944;2023-11-19T17:39:15;7;7;5
55549;PMS7003;41397;49.972;18.944;2023-11-19T17:42:17;5;5;4
55549;PMS7003;41397;49.972;18.944;2023-11-19T17:45:20;8;8;5
55549;PMS7003;41397;49.972;18.944;2023-11-19T17:48:25;9;9;6
55549;PMS7003;41397;49.972;18.944;2023-11-19T17:51:27;5;5;4
55549;PMS7003;41397;49.972;18.944;2023-11-19T17:54:29;9;8;7
55549;PMS7003;41397;49.972;18.944;2023-11-19T17:57:31;9;9;6
55549;PMS7003;41397;49.972;18.944;2023-11-19T18:00:33;9;9;7
55549;PMS7003;41397;49.972;18.944;2023-11-19T18:03:34;9;9;6
55549;PMS7003;41397;49.972;18.944;2023-11-19T18:06:36;10;10;7
55549;PMS7003;41397;49.972;18.944;2023-11-19T18:09:38;9;9;7
55549;PMS7003;41397;49.972;18.944;2023-11-19T18:12:40;11;11;7
55549;PMS7003;41397;49.972;18.944;2023-11-19T18:15:42;15;15;8
55549;PMS7003;41397;49.972;18.944;2023-11-19T18:18:43;8;8;6
55549;PMS7003;41397;49.972;18.944;2023-11-19T18:21:45;12;12;5
55549;PMS7003;41397;49.972;18.944;2023-11-19T18:24:47;17;17;8
55549;PMS7003;41397;49.972;18.944;2023-11-19T18:27:51;6;6;0
55549;PMS7003;41397;49.972;18.944;2023-11-19T18:30:57;21;21;10
55549;PMS7003;41397;49.972;18.944;2023-11-19T18:34:00;12;12;9
55549;PMS7003;41397;49.972;18.944;2023-11-19T18:37:03;18;18;11
55549;PMS7003;41397;49.972;18.944;2023-11-19T18:40:05;12;12;8
55549;PMS7003;41397;49.972;18.944;2023-11-19T18:43:10;12;12;11
55549;PMS7003;41397;49.972;18.944;2023-11-19T18:46:11;18;18;13
55549;PMS7003;41397;49.972;18.944;2023-11-19T18:49:19;14;14;10
55549;PMS7003;41397;49.972;18.944;2023-11-19T18:52:20;11;11;10
55549;PMS7003;41397;49.972;18.944;2023-11-19T18:55:22;15;15;11
55549;PMS7003;41397;49.972;18.944;2023-11-19T18:58:24;17;16;11
55549;PMS7003;41397;49.972;18.944;2023-11-19T19:01:27;18;18;9
55549;PMS7003;41397;49.972;18.944;2023-11-19T19:04:32;16;14;10
55549;PMS7003;41397;49.972;18.944;2023-11-19T19:07:34;18;18;12
55549;PMS7003;41397;49.972;18.944;2023-11-19T19:10:36;14;14;7
55549;PMS7003;41397;49.972;18.944;2023-11-19T19:13:39;11;11;7
55549;PMS7003;41397;49.972;18.944;2023-11-19T19:16:41;16;16;12
55549;PMS7003;41397;49.972;18.944;2023-11-19T19:19:45;14;14;9
55549;PMS7003;41397;49.972;18.944;2023-11-19T19:22:46;14;14;9
55549;PMS7003;41397;49.972;18.944;2023-11-19T19:25:49;14;14;10
55549;PMS7003;41397;49.972;18.944;2023-11-19T19:28:50;12;12;9
55549;PMS7003;41397;49.972;18.944;2023-11-19T19:31:52;16;16;11
55549;PMS7003;41397;49.972;18.944;2023-11-19T19:34:58;18;18;11
55549;PMS7003;41397;49.972;18.944;2023-11-19T19:38:03;22;20;13
55549;PMS7003;41397;49.972;18.944;2023-11-19T19:41:10;10;10;7
55549;PMS7003;41397;49.972;18.944;2023-11-19T19:44:12;26;23;14
55549;PMS7003;41397;49.972;18.944;2023-11-19T19:47:16;26;24;16
55549;PMS7003;41397;49.972;18.944;2023-11-19T19:50:18;23;23;14
55549;PMS7003;41397;49.972;18.944;2023-11-19T19:53:20;18;18;14
55549;PMS7003;41397;49.972;18.944;2023-11-19T19:56:21;18;18;13
55549;PMS7003;41397;49.972;18.944;2023-11-19T19:59:23;13;13;9
55549;PMS7003;41397;49.972;18.944;2023-11-19T20:02:24;13;13;8
55549;PMS7003;41397;49.972;18.944;2023-11-19T20:05:26;13;13;9
55549;PMS7003;41397;49.972;18.944;2023-11-19T20:08:29;13;13;8
55549;PMS7003;41397;49.972;18.944;2023-11-19T20:11:32;11;11;6